Front Ariake — C6RX9 — position and weather

sailwx.info

Track history (hours):
 
Tides and Currents Weather Stations Pressure Air Temp Water Temp Dewpoint Dewpoint Depression Visibility Wind Speed Wind Dir Waves Ship Positions

Front Ariake

Last reported at 2016-Dec-14 04:23 UTC. Time now 2017-Jan-16 12:47 UTC.
Position N 48°19' W 006°35'.
Warning: this ship's position is 33 days out of date.

Length 333 m; draft 11 m.

Type: Tanker. MMSI: 311226956.

Date/timePositionNaut miles runAvg speedWind from/ knotsBaromVisibWave heightAir tempDewpointWater temp
2016-Dec-14 04:23N 48°19' W 006°35'9 9.9
2016-Dec-14 03:30N 48°26' W 006°28'9 9.4
2016-Dec-14 02:33N 48°34' W 006°21'9 9.3
2016-Dec-14 01:33N 48°42' W 006°14'9 9.5
2016-Dec-14 00:33N 48°50' W 006°07'10 9.7
2016-Dec-13 23:33N 48°58' W 005°58'1010.1
2016-Dec-13 22:33N 49°03' W 005°45'1010.2
2016-Dec-13 21:33N 49°08' W 005°31'1010.1
2016-Dec-13 20:33N 49°13' W 005°17'1010.4
2016-Dec-13 19:33N 49°17' W 005°03'50 9.7
2016-Dec-13 14:24N 49°40' W 003°55'7 8.0
2016-Dec-13 13:30N 49°43' W 003°45'1111.6
2016-Dec-13 12:33N 49°49' W 003°30'1313.3
2016-Dec-13 11:33N 49°55' W 003°12'1312.9
2016-Dec-13 10:33N 50°00' W 002°54'2610.5
2016-Dec-13 08:07N 50°07' W 002°15'31 8.1
2016-Dec-13 04:14N 50°14' W 001°28'811.5
2016-Dec-13 03:33N 50°16' W 001°16'1413.4
2016-Dec-13 02:29N 50°20' W 000°54'1613.7
2016-Dec-13 01:19N 50°24' W 000°30'1013.3
2016-Dec-13 00:33N 50°27' W 000°15'1312.6
2016-Dec-12 23:34N 50°30' E 000°04'41 9.9
2016-Dec-12 19:24N 50°49' E 001°02'7 8.2
2016-Dec-12 18:33N 50°52' E 001°12'9 8.9
2016-Dec-12 17:33N 50°58' E 001°22'1010.2
2016-Dec-12 16:33N 51°05' E 001°33'1111.1
2016-Dec-12 15:33N 51°13' E 001°45'1010.5
2016-Dec-12 14:34N 51°22' E 001°53'9 9.4
2016-Dec-12 13:34N 51°30' E 002°01'9 9.0
2016-Dec-12 12:33N 51°37' E 002°10'9 8.6
2016-Dec-12 11:33N 51°44' E 002°19'8 8.2
2016-Dec-12 10:34N 51°51' E 002°25'  
2016-Dec-09 22:22N 52°22' E 002°10'0 0.0
2016-Dec-09 11:25N 52°22' E 002°10'0 0.0
2016-Dec-09 00:31N 52°22' E 002°10'0 0.0
2016-Dec-08 23:22N 52°22' E 002°10'0 0.0
2016-Dec-08 11:19N 52°22' E 002°10'0 0.0
2016-Dec-08 10:13N 52°22' E 002°10'0 0.0
2016-Dec-08 09:31N 52°22' E 002°10'0 0.0
2016-Dec-08 08:31N 52°22' E 002°10'0 0.0
2016-Dec-07 18:31N 52°22' E 002°10'0 0.0
2016-Dec-06 07:13N 52°22' E 002°10'0 0.0
2016-Dec-06 05:31N 52°22' E 002°10'0 0.1
2016-Dec-06 00:28N 52°21' E 002°10'0 0.1
2016-Dec-05 20:13N 52°22' E 002°10'0 0.1
2016-Dec-05 13:31N 52°21' E 002°10'0 0.1
2016-Dec-05 06:22N 52°22' E 002°10'0 0.0
2016-Dec-05 05:28N 52°22' E 002°10'0 0.0
2016-Dec-04 16:19N 52°22' E 002°10'0 0.2
2016-Dec-04 13:28N 52°21' E 002°10'  
Track history (hours):
 
Tides and Currents Weather Stations Pressure Air Temp Water Temp Dewpoint Dewpoint Depression Visibility Wind Speed Wind Dir Waves Ship Positions

Front Ariake

Last reported at 2016-Dec-14 04:23 UTC. Time now 2017-Jan-16 12:47 UTC.
Position N 48°19' W 006°35'.
Warning: this ship's position is 33 days out of date.

Length 333 m; draft 11 m.

Type: Tanker. MMSI: 311226956.

Date/timePositionNaut miles runAvg speedWind from/ knotsBaromVisibWave heightAir tempDewpointWater temp
2016-Dec-14 04:23N 48°19' W 006°35'9 9.9
2016-Dec-14 03:30N 48°26' W 006°28'9 9.4
2016-Dec-14 02:33N 48°34' W 006°21'9 9.3
2016-Dec-14 01:33N 48°42' W 006°14'9 9.5
2016-Dec-14 00:33N 48°50' W 006°07'10 9.7
2016-Dec-13 23:33N 48°58' W 005°58'1010.1
2016-Dec-13 22:33N 49°03' W 005°45'1010.2
2016-Dec-13 21:33N 49°08' W 005°31'1010.1
2016-Dec-13 20:33N 49°13' W 005°17'1010.4
2016-Dec-13 19:33N 49°17' W 005°03'50 9.7
2016-Dec-13 14:24N 49°40' W 003°55'7 8.0
2016-Dec-13 13:30N 49°43' W 003°45'1111.6
2016-Dec-13 12:33N 49°49' W 003°30'1313.3
2016-Dec-13 11:33N 49°55' W 003°12'1312.9
2016-Dec-13 10:33N 50°00' W 002°54'2610.5
2016-Dec-13 08:07N 50°07' W 002°15'31 8.1
2016-Dec-13 04:14N 50°14' W 001°28'811.5
2016-Dec-13 03:33N 50°16' W 001°16'1413.4
2016-Dec-13 02:29N 50°20' W 000°54'1613.7
2016-Dec-13 01:19N 50°24' W 000°30'1013.3
2016-Dec-13 00:33N 50°27' W 000°15'1312.6
2016-Dec-12 23:34N 50°30' E 000°04'41 9.9
2016-Dec-12 19:24N 50°49' E 001°02'7 8.2
2016-Dec-12 18:33N 50°52' E 001°12'9 8.9
2016-Dec-12 17:33N 50°58' E 001°22'1010.2
2016-Dec-12 16:33N 51°05' E 001°33'1111.1
2016-Dec-12 15:33N 51°13' E 001°45'1010.5
2016-Dec-12 14:34N 51°22' E 001°53'9 9.4
2016-Dec-12 13:34N 51°30' E 002°01'9 9.0
2016-Dec-12 12:33N 51°37' E 002°10'9 8.6
2016-Dec-12 11:33N 51°44' E 002°19'8 8.2
2016-Dec-12 10:34N 51°51' E 002°25'  
2016-Dec-09 22:22N 52°22' E 002°10'0 0.0
2016-Dec-09 11:25N 52°22' E 002°10'0 0.0
2016-Dec-09 00:31N 52°22' E 002°10'0 0.0
2016-Dec-08 23:22N 52°22' E 002°10'0 0.0
2016-Dec-08 11:19N 52°22' E 002°10'0 0.0
2016-Dec-08 10:13N 52°22' E 002°10'0 0.0
2016-Dec-08 09:31N 52°22' E 002°10'0 0.0
2016-Dec-08 08:31N 52°22' E 002°10'0 0.0
2016-Dec-07 18:31N 52°22' E 002°10'0 0.0
2016-Dec-06 07:13N 52°22' E 002°10'0 0.0
2016-Dec-06 05:31N 52°22' E 002°10'0 0.1
2016-Dec-06 00:28N 52°21' E 002°10'0 0.1
2016-Dec-05 20:13N 52°22' E 002°10'0 0.1
2016-Dec-05 13:31N 52°21' E 002°10'0 0.1
2016-Dec-05 06:22N 52°22' E 002°10'0 0.0
2016-Dec-05 05:28N 52°22' E 002°10'0 0.0
2016-Dec-04 16:19N 52°22' E 002°10'0 0.2
2016-Dec-04 13:28N 52°21' E 002°10'  

Dump ship's entire track history